createdAt,value
2024-04-06T00:01:27.732Z,64.22
2024-04-06T00:03:59.923Z,64.03
2024-04-06T00:06:31.846Z,64.34
2024-04-06T00:09:04.238Z,64.03
2024-04-06T00:11:35.840Z,64.27
2024-04-06T00:14:15.156Z,64.46
2024-04-06T00:16:46.882Z,64.38
2024-04-06T00:19:19.657Z,64.48
2024-04-06T00:21:51.490Z,64.43
2024-04-06T00:24:24.355Z,64.38
2024-04-06T00:26:56.530Z,64.40
2024-04-06T00:29:28.592Z,64.40
2024-04-06T00:32:03.972Z,64.58
2024-04-06T00:34:36.082Z,64.50
2024-04-06T00:37:10.069Z,64.71
2024-04-06T00:39:42.393Z,64.56
2024-04-06T00:42:17.635Z,64.78
2024-04-06T00:44:49.729Z,64.75
2024-04-06T00:47:21.996Z,64.96
2024-04-06T00:49:54.070Z,64.91
2024-04-06T00:52:27.123Z,64.77
2024-04-06T00:54:59.385Z,64.88
2024-04-06T00:57:31.363Z,64.78
2024-04-06T01:00:07.497Z,65.02
2024-04-06T01:02:40.374Z,64.93
2024-04-06T01:05:32.274Z,64.84
2024-04-06T01:08:05.180Z,65.17
2024-04-06T01:10:37.874Z,65.19
2024-04-06T01:13:11.800Z,65.12
2024-04-06T01:15:43.745Z,65.08
2024-04-06T01:18:16.658Z,65.08
2024-04-06T01:20:48.639Z,65.03
2024-04-06T01:23:24.977Z,64.97
2024-04-06T01:25:56.881Z,65.12
2024-04-06T01:28:28.572Z,65.25
2024-04-06T01:31:00.606Z,65.43
2024-04-06T01:33:32.491Z,65.64
2024-04-06T01:36:08.049Z,65.74
2024-04-06T01:38:39.933Z,65.68
2024-04-06T01:41:12.082Z,65.99
2024-04-06T01:43:45.192Z,66.06
2024-04-06T01:46:20.657Z,65.95
2024-04-06T01:48:52.277Z,66.08
2024-04-06T01:51:27.408Z,66.18
2024-04-06T01:54:01.375Z,66.31
2024-04-06T01:56:36.210Z,66.36
2024-04-06T01:59:11.304Z,66.28
2024-04-06T02:01:47.345Z,66.25
2024-04-06T02:04:19.439Z,66.32
2024-04-06T02:06:51.282Z,66.27
2024-04-06T02:09:22.986Z,66.23
2024-04-06T02:11:55.177Z,66.36
2024-04-06T02:14:27.068Z,66.59
2024-04-06T02:17:00.385Z,66.66
2024-04-06T02:19:50.018Z,66.70
2024-04-06T02:22:21.981Z,66.62
2024-04-06T02:24:53.682Z,66.70
2024-04-06T02:27:25.339Z,66.93
2024-04-06T02:29:56.988Z,66.92
2024-04-06T02:32:29.740Z,66.87
2024-04-06T02:35:01.466Z,66.92
2024-04-06T02:37:35.388Z,67.02
2024-04-06T02:40:10.948Z,67.04
2024-04-06T02:42:46.334Z,67.05
2024-04-06T02:45:20.410Z,67.07
2024-04-06T02:47:52.057Z,67.14
2024-04-06T02:50:23.782Z,67.23
2024-04-06T02:52:55.705Z,67.27
2024-04-06T02:55:27.376Z,67.29
2024-04-06T02:57:59.761Z,67.15
2024-04-06T03:00:31.441Z,67.16
2024-04-06T03:03:03.157Z,67.34
2024-04-06T03:05:34.883Z,67.18
2024-04-06T03:08:08.151Z,67.20
2024-04-06T03:10:39.738Z,67.37
2024-04-06T03:13:11.516Z,67.29
2024-04-06T03:15:43.150Z,67.15
2024-04-06T03:18:17.450Z,67.51
2024-04-06T03:20:59.082Z,67.40
2024-04-06T03:23:31.328Z,67.46
2024-04-06T03:26:03.225Z,67.30
2024-04-06T03:28:35.362Z,67.55
2024-04-06T03:31:07.476Z,67.49
2024-04-06T03:33:39.871Z,67.64
2024-04-06T03:36:11.934Z,67.58
2024-04-06T03:38:44.106Z,67.59
2024-04-06T03:41:18.129Z,67.61
2024-04-06T03:43:50.552Z,67.55
2024-04-06T03:47:10.620Z,67.56
2024-04-06T03:49:59.080Z,67.66
2024-04-06T03:52:31.003Z,67.84
2024-04-06T03:55:03.703Z,67.84
2024-04-06T03:57:35.760Z,67.83
2024-04-06T04:00:10.516Z,67.66
2024-04-06T04:02:44.658Z,67.88
2024-04-06T04:05:18.255Z,67.90
2024-04-06T04:07:51.379Z,67.92
2024-04-06T04:10:23.964Z,67.86
2024-04-06T04:12:55.751Z,68.01
2024-04-06T04:15:28.507Z,68.15
2024-04-06T04:18:03.026Z,68.04
2024-04-06T04:20:36.847Z,68.10
2024-04-06T04:23:09.002Z,67.98
2024-04-06T04:25:44.929Z,68.06
2024-04-06T04:28:29.729Z,68.24
2024-04-06T04:31:19.311Z,68.33
2024-04-06T04:34:03.189Z,68.29
2024-04-06T04:36:39.830Z,68.12
2024-04-06T04:39:14.339Z,68.06
2024-04-06T04:41:47.598Z,68.40
2024-04-06T04:44:35.739Z,68.39
2024-04-06T04:47:13.077Z,68.32
2024-04-06T04:49:44.919Z,68.35
2024-04-06T04:52:20.842Z,68.55
2024-04-06T04:54:54.266Z,68.49
2024-04-06T04:57:26.762Z,68.48
2024-04-06T04:59:59.862Z,68.62
2024-04-06T05:02:32.118Z,68.51
2024-04-06T05:05:05.211Z,68.66
2024-04-06T05:07:37.674Z,68.65
2024-04-06T05:10:11.867Z,68.75
2024-04-06T05:12:46.157Z,68.83
2024-04-06T05:15:21.040Z,68.84
2024-04-06T05:17:53.335Z,70.13
2024-04-06T05:20:25.781Z,71.21
2024-04-06T05:22:58.049Z,71.53
2024-04-06T05:25:29.626Z,71.11
2024-04-06T05:28:03.061Z,70.55
2024-04-06T05:30:45.000Z,70.80
2024-04-06T05:33:19.648Z,70.46
2024-04-06T05:35:54.976Z,70.00
2024-04-06T05:38:29.347Z,70.12
2024-04-06T05:41:01.154Z,69.77
2024-04-06T05:43:36.471Z,68.39
2024-04-06T05:46:08.605Z,67.89
2024-04-06T05:48:44.010Z,67.52
2024-04-06T05:51:15.695Z,67.17
2024-04-06T05:53:51.665Z,67.29
2024-04-06T05:56:23.481Z,67.36
2024-04-06T05:58:55.383Z,67.63
2024-04-06T06:01:27.965Z,67.13
2024-04-06T06:03:59.896Z,67.48
2024-04-06T06:06:55.704Z,67.50
2024-04-06T06:09:32.335Z,67.66
2024-04-06T06:12:04.043Z,67.28
2024-04-06T06:14:36.982Z,67.83
2024-04-06T06:17:09.122Z,67.83
2024-04-06T06:19:41.196Z,68.16
2024-04-06T06:22:13.139Z,68.91
2024-04-06T06:24:46.734Z,69.60
2024-04-06T06:27:20.536Z,69.79
2024-04-06T06:29:53.056Z,69.48
2024-04-06T06:32:33.448Z,70.19
2024-04-06T06:35:09.842Z,69.52
2024-04-06T06:43:30.376Z,69.33
2024-04-06T06:46:02.259Z,68.65
2024-04-06T06:48:34.192Z,67.26
2024-04-06T06:51:06.734Z,67.40
2024-04-06T06:53:38.415Z,67.70
2024-04-06T06:56:13.009Z,67.48
2024-04-06T06:58:47.512Z,67.07
2024-04-06T07:01:22.978Z,65.93
2024-04-06T07:03:54.884Z,65.38
2024-04-06T07:09:10.748Z,64.08
2024-04-06T07:11:44.912Z,63.68
2024-04-06T07:14:29.058Z,63.07
2024-04-06T07:17:02.058Z,63.11
2024-04-06T07:19:36.276Z,63.40
2024-04-06T07:22:09.019Z,63.07
2024-04-06T07:24:41.516Z,63.15
2024-04-06T07:27:13.767Z,63.07
2024-04-06T07:29:45.666Z,63.77
2024-04-06T07:32:20.577Z,63.89
2024-04-06T07:34:52.345Z,63.83
2024-04-06T07:37:25.221Z,63.46
2024-04-06T07:39:56.848Z,63.82
2024-04-06T07:42:29.618Z,63.70
2024-04-06T07:45:08.717Z,64.37
2024-04-06T07:47:42.298Z,64.66
2024-04-06T07:50:14.192Z,64.76
2024-04-06T07:52:47.369Z,64.60
2024-04-06T07:55:22.131Z,64.56
2024-04-06T07:58:03.251Z,64.31
2024-04-06T08:00:35.212Z,64.10
2024-04-06T08:03:07.864Z,64.31
2024-04-06T08:05:39.588Z,64.32
2024-04-06T08:08:11.757Z,64.40
2024-04-06T08:10:46.388Z,64.11
2024-04-06T08:13:21.966Z,64.20
2024-04-06T08:15:54.051Z,64.13
2024-04-06T08:18:26.961Z,64.66
2024-04-06T08:21:01.125Z,64.79
2024-04-06T08:23:36.268Z,64.29
2024-04-06T08:26:08.208Z,64.15
2024-04-06T08:28:50.623Z,64.53
2024-04-06T08:31:39.121Z,64.65
2024-04-06T08:34:11.167Z,64.40
2024-04-06T08:36:43.226Z,64.11
2024-04-06T08:39:15.441Z,63.52
2024-04-06T08:41:50.158Z,63.40
2024-04-06T08:44:34.083Z,63.35
2024-04-06T08:47:10.053Z,63.49
2024-04-06T08:49:43.126Z,63.22
2024-04-06T08:52:16.088Z,63.22
2024-04-06T08:54:49.682Z,63.17
2024-04-06T08:57:22.365Z,63.30
2024-04-06T08:59:56.655Z,63.23
2024-04-06T09:02:33.437Z,63.32
2024-04-06T09:05:09.236Z,63.24
2024-04-06T09:07:40.918Z,63.61
2024-04-06T09:10:12.792Z,63.29
2024-04-06T09:12:44.800Z,63.40
2024-04-06T09:15:21.667Z,63.39
2024-04-06T09:17:53.234Z,63.04
2024-04-06T09:20:25.525Z,63.45
2024-04-06T09:22:58.038Z,63.59
2024-04-06T09:25:29.847Z,63.57
2024-04-06T09:28:01.555Z,63.46
2024-04-06T09:30:43.611Z,63.63
2024-04-06T09:33:16.899Z,63.36
2024-04-06T09:35:50.848Z,63.40
2024-04-06T09:38:28.715Z,63.50
2024-04-06T09:41:01.068Z,63.61
2024-04-06T09:43:33.071Z,63.83
2024-04-06T09:46:05.579Z,63.64
2024-04-06T09:48:39.099Z,63.88
2024-04-06T09:51:14.113Z,64.04
2024-04-06T09:53:48.521Z,63.96
2024-04-06T09:56:23.250Z,63.96
2024-04-06T09:59:29.461Z,63.77
2024-04-06T10:02:01.749Z,63.62
2024-04-06T10:04:39.607Z,63.49
2024-04-06T10:07:15.823Z,63.39
2024-04-06T10:09:47.982Z,63.06
2024-04-06T10:12:20.675Z,63.15
2024-04-06T10:14:52.214Z,62.96
2024-04-06T10:17:24.948Z,62.83
2024-04-06T10:20:00.494Z,63.56
2024-04-06T10:22:46.905Z,64.22
2024-04-06T10:25:23.967Z,64.41
2024-04-06T10:28:07.918Z,64.14
2024-04-06T10:30:40.926Z,63.74
2024-04-06T10:33:12.908Z,63.44
2024-04-06T10:35:49.148Z,63.70
2024-04-06T10:38:23.643Z,63.61
2024-04-06T10:40:55.412Z,63.34
2024-04-06T10:43:27.346Z,63.24
2024-04-06T10:45:59.013Z,62.99
2024-04-06T10:48:31.389Z,62.68
2024-04-06T10:51:04.072Z,63.01
2024-04-06T10:53:38.075Z,62.36
2024-04-06T10:56:12.795Z,61.97
2024-04-06T10:58:45.067Z,61.76
2024-04-06T11:01:20.983Z,61.74
2024-04-06T11:04:14.946Z,61.29
2024-04-06T11:06:46.768Z,61.14
2024-04-06T11:09:20.212Z,61.33
2024-04-06T11:11:52.325Z,61.47
2024-04-06T11:14:29.009Z,61.52
2024-04-06T11:17:03.475Z,61.71
2024-04-06T11:19:38.152Z,61.72
2024-04-06T11:22:10.279Z,61.83
2024-04-06T11:24:43.442Z,61.71
2024-04-06T11:27:15.547Z,61.65
2024-04-06T11:30:02.668Z,61.83
2024-04-06T11:32:37.028Z,61.68
2024-04-06T11:35:10.077Z,61.43
2024-04-06T11:37:42.217Z,61.19
2024-04-06T11:40:14.614Z,61.00
2024-04-06T11:42:46.621Z,61.23
2024-04-06T11:45:19.540Z,61.31
2024-04-06T11:47:56.100Z,61.41
2024-04-06T11:50:30.485Z,61.11
2024-04-06T11:53:02.193Z,61.24
2024-04-06T11:55:34.575Z,60.66
2024-04-06T11:58:16.923Z,60.39
2024-04-06T12:00:51.681Z,60.68
2024-04-06T12:03:23.306Z,60.99
2024-04-06T12:05:59.060Z,60.91
2024-04-06T12:08:31.198Z,60.86
2024-04-06T12:11:03.334Z,60.68
2024-04-06T12:13:38.467Z,60.78
2024-04-06T12:16:14.528Z,60.75
2024-04-06T12:18:46.323Z,60.75
2024-04-06T12:21:19.202Z,60.55
2024-04-06T12:23:54.924Z,60.54
2024-04-06T12:26:28.436Z,60.57
2024-04-06T12:29:00.178Z,60.52
2024-04-06T12:31:50.242Z,60.22
2024-04-06T12:34:22.058Z,59.98
2024-04-06T12:36:54.583Z,59.75
2024-04-06T12:39:26.586Z,59.98
2024-04-06T12:41:59.099Z,59.62
2024-04-06T12:44:30.777Z,59.34
2024-04-06T12:47:03.377Z,59.29
2024-04-06T12:49:35.111Z,59.49
2024-04-06T12:52:08.347Z,59.70
2024-04-06T12:54:40.001Z,59.78
2024-04-06T12:57:29.773Z,59.63
2024-04-06T13:00:01.587Z,59.77
2024-04-06T13:02:33.312Z,59.90
2024-04-06T13:05:05.014Z,59.89
2024-04-06T13:07:38.855Z,60.00
2024-04-06T13:10:10.985Z,60.13
2024-04-06T13:12:42.996Z,60.03
2024-04-06T13:15:14.854Z,59.71
2024-04-06T13:17:47.021Z,59.55
2024-04-06T13:20:28.165Z,59.44
2024-04-06T13:23:00.125Z,59.36
2024-04-06T13:25:31.678Z,59.17
2024-04-06T13:28:05.249Z,59.31
2024-04-06T13:30:39.380Z,59.58
2024-04-06T13:33:11.297Z,59.61
2024-04-06T13:35:43.159Z,59.62
2024-04-06T13:38:21.670Z,59.33
2024-04-06T13:40:53.525Z,59.29
2024-04-06T13:43:26.350Z,59.42
2024-04-06T13:45:59.400Z,59.27
2024-04-06T13:48:34.777Z,59.43
2024-04-06T13:51:08.263Z,59.47
2024-04-06T13:53:42.494Z,59.29
2024-04-06T13:56:17.611Z,59.15
2024-04-06T13:58:52.323Z,59.17
2024-04-06T14:01:38.659Z,59.02
2024-04-06T14:04:10.754Z,58.68
2024-04-06T14:06:47.335Z,58.59
2024-04-06T14:09:23.766Z,58.38
2024-04-06T14:11:56.091Z,58.28
2024-04-06T14:14:31.218Z,58.41
2024-04-06T14:17:05.732Z,58.53
2024-04-06T14:19:38.304Z,58.73
2024-04-06T14:22:09.901Z,58.59
2024-04-06T14:24:42.242Z,58.58
2024-04-06T14:27:14.194Z,58.57
2024-04-06T14:29:46.267Z,58.56
2024-04-06T14:32:18.197Z,58.42
2024-04-06T14:34:51.328Z,58.42
2024-04-06T14:37:25.627Z,58.34
2024-04-06T14:39:57.907Z,58.40
2024-04-06T14:42:29.472Z,58.26
2024-04-06T14:45:01.404Z,58.29
2024-04-06T14:47:33.242Z,58.23
2024-04-06T14:50:06.178Z,58.34
2024-04-06T14:52:38.859Z,58.21
2024-04-06T14:55:11.163Z,58.21
2024-04-06T14:57:42.888Z,58.08
2024-04-06T15:00:17.108Z,58.16
2024-04-06T15:02:59.780Z,58.17
2024-04-06T15:05:31.988Z,58.30
2024-04-06T15:08:03.744Z,58.13
2024-04-06T15:10:36.875Z,58.18
2024-04-06T15:13:11.462Z,58.06
2024-04-06T15:15:44.383Z,58.02
2024-04-06T15:18:16.469Z,57.99
2024-04-06T15:20:50.652Z,58.00
2024-04-06T15:23:25.206Z,58.04
2024-04-06T15:25:56.858Z,57.95
2024-04-06T15:28:28.742Z,57.85
2024-04-06T15:31:00.831Z,57.73
2024-04-06T15:33:32.430Z,57.82
2024-04-06T15:36:04.440Z,57.84
2024-04-06T15:38:36.790Z,57.92
2024-04-06T15:41:09.299Z,57.96
2024-04-06T15:43:44.198Z,57.87
2024-04-06T15:46:19.247Z,58.10
2024-04-06T15:48:52.055Z,58.03
2024-04-06T15:51:24.125Z,58.04
2024-04-06T15:53:56.003Z,58.10
2024-04-06T15:56:29.465Z,58.04
2024-04-06T15:59:01.340Z,58.04
2024-04-06T16:01:40.378Z,58.12
2024-04-06T16:04:12.366Z,58.13
2024-04-06T16:06:44.183Z,57.97
2024-04-06T16:09:15.944Z,58.13
2024-04-06T16:11:50.985Z,57.95
2024-04-06T16:14:24.693Z,58.18
2024-04-06T16:16:56.363Z,58.09
2024-04-06T16:19:28.850Z,58.24
2024-04-06T16:22:00.886Z,58.11
2024-04-06T16:24:33.918Z,58.24
2024-04-06T16:27:06.093Z,58.18
2024-04-06T16:29:37.720Z,58.30
2024-04-06T16:32:10.621Z,58.26
2024-04-06T16:34:42.308Z,58.38
2024-04-06T16:37:14.396Z,58.38
2024-04-06T16:39:46.306Z,58.34
2024-04-06T16:42:18.091Z,58.34
2024-04-06T16:44:49.892Z,58.35
2024-04-06T16:47:21.499Z,58.24
2024-04-06T16:49:55.839Z,58.46
2024-04-06T16:52:28.724Z,58.48
2024-04-06T16:55:00.484Z,58.45
2024-04-06T16:57:32.177Z,58.46
2024-04-06T17:00:06.433Z,58.39
2024-04-06T17:02:38.245Z,58.53
2024-04-06T17:05:12.233Z,58.53
2024-04-06T17:07:44.055Z,58.47
2024-04-06T17:10:16.337Z,58.52
2024-04-06T17:12:50.127Z,58.59
2024-04-06T17:15:27.724Z,58.65
2024-04-06T17:17:58.455Z,58.80
2024-04-06T17:20:30.983Z,58.70
2024-04-06T17:23:05.356Z,58.75
2024-04-06T17:25:37.639Z,58.65
2024-04-06T17:28:09.676Z,58.72
2024-04-06T17:30:43.363Z,58.59
2024-04-06T17:33:15.865Z,58.64
2024-04-06T17:35:48.308Z,58.78
2024-04-06T17:38:20.474Z,58.73
2024-04-06T17:40:55.467Z,58.87
2024-04-06T17:43:34.247Z,58.72
2024-04-06T17:46:10.167Z,59.11
2024-04-06T17:48:42.212Z,58.86
2024-04-06T17:51:14.564Z,58.95
2024-04-06T17:53:46.361Z,59.12
2024-04-06T17:56:19.206Z,59.12
2024-04-06T17:58:53.531Z,59.06
2024-04-06T18:01:31.621Z,59.57
2024-04-06T18:04:06.320Z,59.58
2024-04-06T18:06:39.042Z,59.56
2024-04-06T18:09:12.085Z,59.56
2024-04-06T18:11:56.591Z,59.69
2024-04-06T18:14:35.989Z,59.59
2024-04-06T18:17:09.763Z,59.62
2024-04-06T18:19:43.310Z,59.68
2024-04-06T18:22:15.356Z,59.82
2024-04-06T18:24:51.261Z,59.68
2024-04-06T18:27:26.920Z,59.69
2024-04-06T18:29:58.825Z,59.61
2024-04-06T18:32:32.855Z,59.75
2024-04-06T18:35:05.162Z,60.13
2024-04-06T18:37:37.171Z,60.01
2024-04-06T18:40:10.381Z,60.14
2024-04-06T18:42:45.643Z,59.97
2024-04-06T18:45:27.714Z,59.98
2024-04-06T18:48:01.884Z,60.41
2024-04-06T18:50:34.775Z,60.32
2024-04-06T18:53:09.987Z,60.49
2024-04-06T18:55:50.860Z,60.26
2024-04-06T18:58:22.839Z,60.14
2024-04-06T19:01:03.207Z,60.51
2024-04-06T19:03:35.556Z,60.40
2024-04-06T19:06:08.361Z,60.48
2024-04-06T19:08:41.632Z,60.92
2024-04-06T19:11:15.946Z,60.85
2024-04-06T19:13:50.678Z,60.69
2024-04-06T19:16:22.410Z,60.77
2024-04-06T19:18:54.367Z,60.82
2024-04-06T19:21:28.780Z,60.87
2024-04-06T19:24:12.721Z,60.96
2024-04-06T19:26:48.589Z,61.09
2024-04-06T19:29:24.171Z,61.23
2024-04-06T19:31:57.454Z,61.14
2024-04-06T19:34:31.613Z,61.51
2024-04-06T19:37:04.167Z,61.28
2024-04-06T19:39:36.019Z,61.30
2024-04-06T19:42:08.800Z,61.11
2024-04-06T19:44:41.713Z,61.12
2024-04-06T19:47:19.698Z,61.26
2024-04-06T19:49:54.765Z,61.27
2024-04-06T19:52:28.289Z,61.39
2024-04-06T19:54:59.983Z,61.46
2024-04-06T19:57:32.361Z,61.65
2024-04-06T20:00:05.568Z,61.83
2024-04-06T20:02:43.838Z,62.00
2024-04-06T20:05:30.743Z,61.95
2024-04-06T20:08:03.372Z,62.01
2024-04-06T20:10:52.090Z,61.91
2024-04-06T20:13:23.151Z,61.72
2024-04-06T20:15:55.576Z,61.72
2024-04-06T20:18:33.198Z,61.70
2024-04-06T20:21:05.177Z,61.97
2024-04-06T20:23:55.200Z,62.06
2024-04-06T20:26:34.613Z,62.11
2024-04-06T20:29:10.530Z,62.29
2024-04-06T20:31:52.014Z,62.63
2024-04-06T20:34:24.224Z,62.36
2024-04-06T20:37:07.523Z,62.29
2024-04-06T20:39:40.413Z,62.62
2024-04-06T20:42:13.642Z,62.66
2024-04-06T20:44:48.572Z,62.72
2024-04-06T20:47:20.894Z,62.82
2024-04-06T20:49:56.128Z,63.00
2024-04-06T20:52:30.579Z,62.89
2024-04-06T20:55:02.937Z,63.04
2024-04-06T20:57:34.542Z,62.88
2024-04-06T21:00:07.850Z,62.51
2024-04-06T21:02:39.588Z,62.57
2024-04-06T21:05:11.445Z,63.01
2024-04-06T21:07:43.125Z,63.13
2024-04-06T21:10:16.477Z,63.14
2024-04-06T21:12:59.041Z,62.89
2024-04-06T21:15:37.444Z,62.90
2024-04-06T21:18:09.473Z,62.97
2024-04-06T21:20:42.379Z,62.99
2024-04-06T21:23:14.475Z,62.97
2024-04-06T21:25:46.443Z,63.26
2024-04-06T21:28:18.060Z,63.35
2024-04-06T21:30:50.295Z,63.16
2024-04-06T21:33:22.059Z,63.00
2024-04-06T21:35:54.115Z,62.92
2024-04-06T21:38:25.597Z,62.89
2024-04-06T21:41:02.395Z,63.07
2024-04-06T21:43:34.111Z,63.08
2024-04-06T21:46:10.075Z,63.20
2024-04-06T21:48:44.011Z,63.30
2024-04-06T21:51:16.467Z,63.20
2024-04-06T21:53:48.215Z,63.23
2024-04-06T21:56:20.552Z,63.51
2024-04-06T21:58:52.424Z,63.78
2024-04-06T22:01:30.463Z,63.70
2024-04-06T22:04:07.207Z,63.43
2024-04-06T22:06:39.209Z,63.40
2024-04-06T22:09:11.387Z,63.37
2024-04-06T22:11:43.345Z,63.51
2024-04-06T22:14:14.961Z,63.64
2024-04-06T22:16:48.483Z,63.54
2024-04-06T22:19:20.175Z,63.34
2024-04-06T22:21:52.372Z,63.41
2024-04-06T22:24:23.970Z,63.50
2024-04-06T22:26:56.265Z,63.57
2024-04-06T22:29:29.322Z,63.66
2024-04-06T22:32:01.548Z,63.76
2024-04-06T22:34:33.213Z,63.88
2024-04-06T22:37:05.859Z,64.02
2024-04-06T22:39:37.414Z,64.20
2024-04-06T22:42:09.674Z,64.44
2024-04-06T22:44:43.242Z,64.56
2024-04-06T22:47:17.722Z,64.50
2024-04-06T22:49:49.328Z,64.61
2024-04-06T22:52:21.274Z,64.63
2024-04-06T22:54:53.133Z,64.65
2024-04-06T22:57:25.763Z,64.27
2024-04-06T22:59:58.430Z,64.24
2024-04-06T23:02:35.583Z,64.49
2024-04-06T23:05:08.063Z,64.67
2024-04-06T23:07:41.282Z,64.57
2024-04-06T23:10:13.439Z,64.65
2024-04-06T23:12:45.371Z,64.77
2024-04-06T23:15:17.216Z,64.52
2024-04-06T23:17:57.755Z,64.36
2024-04-06T23:20:35.414Z,64.75
2024-04-06T23:23:07.593Z,64.45
2024-04-06T23:25:39.456Z,64.59
2024-04-06T23:28:12.102Z,64.71
2024-04-06T23:30:45.480Z,64.70
2024-04-06T23:33:16.993Z,64.71
2024-04-06T23:35:48.927Z,64.50
2024-04-06T23:38:20.738Z,64.40
2024-04-06T23:40:53.272Z,64.49
2024-04-06T23:43:30.422Z,64.54
2024-04-06T23:46:05.274Z,64.46
2024-04-06T23:48:39.057Z,64.43
2024-04-06T23:51:11.805Z,64.41
2024-04-06T23:53:43.518Z,64.66
2024-04-06T23:56:15.910Z,64.73
2024-04-06T23:58:48.538Z,64.81
